Terminal Aerodrome Forecast
Issued by NWS

Home | Current Version | Previous Version | Text Only | Print | Product List | Glossary Off
Versions: 1 2 3 4 5 6 7 8 9 10 11 12 13

000
FTUS45 KGGW 131100 RRA
TAFSDY
TAF
KSDY 131142Z 1312/1412 34014KT P6SM OVC023
     FM131300 34007KT P6SM FEW150
     FM131700 34014KT P6SM BKN070
     FM140400 33006KT P6SM SKC
      AMD LTD TO CLD VIS AND WIND=

USA.gov is the U.S. government's official web portal to all federal, state and local government web resources and services.